createdAt,value
2019-02-25T00:01:00.611Z,-0.70
2019-02-25T00:03:48.673Z,-0.70
2019-02-25T00:06:36.445Z,-0.70
2019-02-25T00:09:24.783Z,-0.70
2019-02-25T00:12:12.556Z,-0.80
2019-02-25T00:15:00.374Z,-0.80
2019-02-25T00:17:48.152Z,-0.80
2019-02-25T00:20:35.707Z,-0.70
2019-02-25T00:23:23.371Z,-0.80
2019-02-25T00:26:10.991Z,-0.80
2019-02-25T00:28:58.662Z,-0.80
2019-02-25T00:31:46.552Z,-0.80
2019-02-25T00:34:34.445Z,-0.80
2019-02-25T00:37:22.052Z,-0.90
2019-02-25T00:40:09.874Z,-0.90
2019-02-25T00:42:57.912Z,-0.90
2019-02-25T00:45:45.853Z,-0.90
2019-02-25T00:48:33.481Z,-1.00
2019-02-25T00:51:21.488Z,-1.00
2019-02-25T00:54:09.339Z,-1.00
2019-02-25T00:56:56.833Z,-1.10
2019-02-25T00:59:44.692Z,-1.00
2019-02-25T01:02:32.420Z,-1.10
2019-02-25T01:05:20.540Z,-1.20
2019-02-25T01:08:08.573Z,-1.20
2019-02-25T01:10:56.245Z,-1.20
2019-02-25T01:13:44.042Z,-1.30
2019-02-25T01:16:32.050Z,-1.30
2019-02-25T01:19:19.652Z,-1.30
2019-02-25T01:22:07.356Z,-1.30
2019-02-25T01:24:55.274Z,-1.30
2019-02-25T01:27:43.196Z,-1.30
2019-02-25T01:30:30.944Z,-1.30
2019-02-25T01:33:18.972Z,-1.30
2019-02-25T01:36:06.470Z,-1.30
2019-02-25T01:38:54.598Z,-1.30
2019-02-25T01:41:42.236Z,-1.30
2019-02-25T01:44:30.161Z,-1.40
2019-02-25T01:47:18.495Z,-1.40
2019-02-25T01:50:06.677Z,-1.40
2019-02-25T01:52:54.465Z,-1.40
2019-02-25T01:55:42.103Z,-1.50
2019-02-25T01:58:30.186Z,-1.50
2019-02-25T02:01:17.491Z,-1.50
2019-02-25T02:04:04.977Z,-1.50
2019-02-25T02:06:52.556Z,-1.50
2019-02-25T02:09:40.666Z,-1.50
2019-02-25T02:12:28.356Z,-1.60
2019-02-25T02:15:16.500Z,-1.60
2019-02-25T02:18:04.693Z,-1.60
2019-02-25T02:20:53.391Z,-1.60
2019-02-25T02:23:41.209Z,-1.70
2019-02-25T02:26:29.325Z,-1.70
2019-02-25T02:29:17.357Z,-1.70
2019-02-25T02:32:05.316Z,-1.70
2019-02-25T02:34:52.690Z,-1.70
2019-02-25T02:37:40.116Z,-1.80
2019-02-25T02:40:28.095Z,-1.90
2019-02-25T02:43:16.298Z,-1.90
2019-02-25T02:46:47.009Z,-2.20
2019-02-25T02:49:34.723Z,-2.20
2019-02-25T02:52:22.726Z,-2.20
2019-02-25T02:55:10.358Z,-2.20
2019-02-25T02:57:58.093Z,-2.20
2019-02-25T03:00:45.968Z,-2.10
2019-02-25T03:03:33.314Z,-2.20
2019-02-25T03:06:20.603Z,-2.10
2019-02-25T03:09:11.289Z,-2.10
2019-02-25T03:11:58.887Z,-2.10
2019-02-25T03:14:46.880Z,-2.10
2019-02-25T03:17:34.601Z,-2.20
2019-02-25T03:20:22.278Z,-2.30
2019-02-25T03:23:09.946Z,-2.30
2019-02-25T03:25:57.655Z,-2.30
2019-02-25T03:28:45.705Z,-2.20
2019-02-25T03:31:33.666Z,-2.20
2019-02-25T03:34:21.208Z,-2.20
2019-02-25T03:37:09.242Z,-2.30
2019-02-25T03:39:56.578Z,-2.30
2019-02-25T03:42:44.232Z,-2.30
2019-02-25T03:45:31.795Z,-2.30
2019-02-25T03:48:19.032Z,-2.30
2019-02-25T03:51:07.956Z,-2.20
2019-02-25T03:53:56.237Z,-2.10
2019-02-25T03:56:44.290Z,-2.10
2019-02-25T03:59:32.015Z,-2.10
2019-02-25T04:02:19.775Z,-2.10
2019-02-25T04:05:07.921Z,-2.10
2019-02-25T04:07:55.988Z,-2.20
2019-02-25T04:10:43.958Z,-2.20
2019-02-25T04:13:31.506Z,-2.20
2019-02-25T04:16:18.814Z,-2.20
2019-02-25T04:19:06.905Z,-2.20
2019-02-25T04:21:54.920Z,-2.20
2019-02-25T04:24:42.545Z,-2.20
2019-02-25T04:27:30.147Z,-2.20
2019-02-25T04:30:18.113Z,-2.30
2019-02-25T04:33:05.887Z,-2.20
2019-02-25T04:35:53.261Z,-2.30
2019-02-25T04:38:41.228Z,-2.30
2019-02-25T04:41:28.954Z,-2.30
2019-02-25T04:44:16.607Z,-2.30
2019-02-25T04:47:04.643Z,-2.30
2019-02-25T04:49:52.517Z,-2.40
2019-02-25T04:52:40.532Z,-2.40
2019-02-25T04:55:28.313Z,-2.40
2019-02-25T04:58:16.672Z,-2.40
2019-02-25T05:01:04.680Z,-2.40
2019-02-25T05:03:52.225Z,-2.40
2019-02-25T05:06:39.908Z,-2.50
2019-02-25T05:09:27.514Z,-2.50
2019-02-25T05:12:15.305Z,-2.50
2019-02-25T05:15:02.965Z,-2.50
2019-02-25T05:17:50.894Z,-2.50
2019-02-25T05:20:38.481Z,-2.50
2019-02-25T05:23:26.179Z,-2.50
2019-02-25T05:26:13.534Z,-2.50
2019-02-25T05:29:01.187Z,-2.50
2019-02-25T05:31:48.857Z,-2.50
2019-02-25T05:34:36.339Z,-2.50
2019-02-25T05:37:24.038Z,-2.50
2019-02-25T05:40:13.983Z,-2.50
2019-02-25T05:43:01.812Z,-2.60
2019-02-25T05:45:49.702Z,-2.60
2019-02-25T05:48:37.160Z,-2.60
2019-02-25T05:51:24.996Z,-2.60
2019-02-25T05:54:12.703Z,-2.70
2019-02-25T05:57:00.557Z,-2.60
2019-02-25T05:59:48.433Z,-2.60
2019-02-25T06:02:36.269Z,-2.60
2019-02-25T06:05:24.199Z,-2.60
2019-02-25T06:08:12.139Z,-2.60
2019-02-25T06:10:59.957Z,-2.60
2019-02-25T06:13:47.136Z,-2.70
2019-02-25T06:16:35.102Z,-2.80
2019-02-25T06:19:22.720Z,-2.80
2019-02-25T06:22:10.345Z,-2.80
2019-02-25T06:24:58.214Z,-2.80
2019-02-25T06:27:46.190Z,-3.00
2019-02-25T06:30:34.019Z,-3.30
2019-02-25T06:33:21.754Z,-3.60
2019-02-25T06:36:09.291Z,-3.60
2019-02-25T06:38:57.128Z,-3.60
2019-02-25T06:41:44.826Z,-3.50
2019-02-25T06:44:32.452Z,-3.40
2019-02-25T06:47:19.906Z,-3.20
2019-02-25T06:50:07.858Z,-3.10
2019-02-25T06:52:55.802Z,-2.90
2019-02-25T06:55:43.264Z,-2.80
2019-02-25T06:58:30.628Z,-2.70
2019-02-25T07:01:18.022Z,-2.60
2019-02-25T07:04:16.264Z,-2.40
2019-02-25T07:07:07.422Z,-2.30
2019-02-25T07:10:22.795Z,-2.20
2019-02-25T07:13:15.445Z,-2.00
2019-02-25T07:16:10.775Z,-1.90
2019-02-25T07:19:32.638Z,-1.70
2019-02-25T07:22:42.143Z,-1.60
2019-02-25T07:25:39.125Z,-1.40
2019-02-25T07:28:58.529Z,-1.30
2019-02-25T07:32:11.144Z,-1.20
2019-02-25T07:35:19.733Z,-1.00
2019-02-25T07:38:39.198Z,-0.90
2019-02-25T07:41:38.213Z,-0.80
2019-02-25T07:44:48.376Z,-0.80
2019-02-25T07:47:53.692Z,-0.70
2019-02-25T07:51:00.313Z,-0.50
2019-02-25T07:53:54.238Z,-0.30
2019-02-25T07:56:58.553Z,-0.10
2019-02-25T08:00:05.224Z,0.10
2019-02-25T08:03:10.971Z,0.30
2019-02-25T08:06:17.368Z,0.50
2019-02-25T08:09:17.186Z,0.70
2019-02-25T08:12:12.791Z,0.90
2019-02-25T08:15:34.727Z,1.10
2019-02-25T08:18:30.835Z,1.30
2019-02-25T08:21:41.916Z,1.50
2019-02-25T08:24:54.760Z,1.60
2019-02-25T08:27:49.553Z,1.80
2019-02-25T08:31:02.268Z,2.00
2019-02-25T08:33:58.087Z,2.20
2019-02-25T08:37:24.969Z,2.40
2019-02-25T08:40:51.392Z,2.60
2019-02-25T08:43:57.409Z,2.80
2019-02-25T08:46:59.505Z,3.10
2019-02-25T08:49:50.505Z,3.20
2019-02-25T08:52:38.517Z,3.40
2019-02-25T08:55:26.093Z,3.50
2019-02-25T08:58:13.773Z,3.70
2019-02-25T09:01:02.129Z,3.80
2019-02-25T09:03:50.170Z,3.90
2019-02-25T09:06:38.045Z,3.80
2019-02-25T09:09:25.926Z,3.70
2019-02-25T09:12:13.693Z,3.80
2019-02-25T09:15:01.362Z,3.80
2019-02-25T09:17:47.612Z,3.90
2019-02-25T09:20:35.205Z,4.10
2019-02-25T09:23:22.770Z,4.40
2019-02-25T09:26:11.898Z,4.60
2019-02-25T09:29:00.117Z,4.80
2019-02-25T09:31:47.379Z,4.90
2019-02-25T09:34:34.860Z,5.10
2019-02-25T09:37:22.413Z,5.30
2019-02-25T09:40:12.092Z,5.40
2019-02-25T09:42:59.766Z,5.50
2019-02-25T09:45:47.076Z,5.60
2019-02-25T09:48:34.653Z,5.60
2019-02-25T09:51:22.025Z,5.70
2019-02-25T09:54:09.614Z,5.80
2019-02-25T09:56:57.141Z,6.00
2019-02-25T09:59:45.050Z,6.00
2019-02-25T10:02:32.753Z,6.20
2019-02-25T10:05:20.959Z,6.10
2019-02-25T10:08:08.511Z,6.30
2019-02-25T10:10:56.338Z,6.40
2019-02-25T10:13:44.182Z,6.60
2019-02-25T10:16:31.714Z,6.80
2019-02-25T10:19:19.397Z,7.10
2019-02-25T10:22:07.242Z,7.30
2019-02-25T10:24:54.580Z,7.40
2019-02-25T10:27:41.801Z,7.40
2019-02-25T10:30:29.736Z,7.50
2019-02-25T10:33:17.445Z,7.60
2019-02-25T10:36:04.791Z,7.80
2019-02-25T10:38:52.633Z,8.00
2019-02-25T10:41:40.262Z,8.10
2019-02-25T10:44:27.591Z,8.30
2019-02-25T10:47:16.927Z,8.20
2019-02-25T10:50:05.418Z,8.10
2019-02-25T10:53:03.024Z,8.20
2019-02-25T10:55:50.944Z,8.20
2019-02-25T10:58:39.555Z,8.30
2019-02-25T11:01:26.993Z,8.30
2019-02-25T11:04:15.362Z,8.30
2019-02-25T11:07:05.081Z,8.40
2019-02-25T11:10:07.192Z,8.50
2019-02-25T11:12:57.482Z,8.70
2019-02-25T11:15:47.816Z,8.80
2019-02-25T11:18:34.332Z,8.80
2019-02-25T11:21:22.204Z,8.70
2019-02-25T11:24:10.187Z,8.50
2019-02-25T11:26:59.052Z,8.40
2019-02-25T11:29:48.474Z,8.20
2019-02-25T11:32:36.159Z,8.10
2019-02-25T11:35:23.852Z,8.20
2019-02-25T11:38:11.749Z,8.30
2019-02-25T11:41:01.918Z,8.40
2019-02-25T11:43:50.982Z,8.50
2019-02-25T11:46:38.495Z,8.50
2019-02-25T11:49:25.808Z,8.60
2019-02-25T11:52:13.609Z,8.70
2019-02-25T11:55:01.410Z,8.80
2019-02-25T11:57:48.661Z,8.90
2019-02-25T12:00:36.427Z,9.00
2019-02-25T12:03:23.935Z,9.00
2019-02-25T12:06:11.783Z,9.00
2019-02-25T12:08:59.099Z,9.10
2019-02-25T12:11:46.930Z,9.20
2019-02-25T12:14:34.720Z,9.30
2019-02-25T12:17:22.031Z,9.50
2019-02-25T12:20:11.050Z,9.70
2019-02-25T12:22:58.637Z,9.90
2019-02-25T12:25:46.593Z,10.00
2019-02-25T12:28:34.344Z,10.20
2019-02-25T12:31:22.231Z,10.40
2019-02-25T12:34:10.185Z,10.50
2019-02-25T12:36:57.500Z,10.70
2019-02-25T12:39:45.039Z,10.90
2019-02-25T12:42:32.590Z,11.10
2019-02-25T12:45:20.180Z,11.20
2019-02-25T12:48:08.137Z,11.40
2019-02-25T12:50:55.843Z,11.50
2019-02-25T12:53:43.330Z,11.70
2019-02-25T12:56:31.046Z,11.70
2019-02-25T12:59:18.761Z,11.80
2019-02-25T13:02:06.234Z,11.70
2019-02-25T13:04:54.632Z,11.80
2019-02-25T13:07:42.173Z,11.90
2019-02-25T13:10:29.809Z,11.90
2019-02-25T13:13:17.066Z,12.10
2019-02-25T13:16:04.848Z,12.20
2019-02-25T13:18:52.676Z,12.30
2019-02-25T13:21:40.704Z,12.30
2019-02-25T13:24:30.310Z,12.30
2019-02-25T13:27:18.374Z,12.30
2019-02-25T13:30:08.197Z,12.40
2019-02-25T13:32:55.733Z,12.50
2019-02-25T13:35:43.306Z,12.50
2019-02-25T13:38:31.539Z,12.50
2019-02-25T13:41:19.615Z,12.50
2019-02-25T13:44:07.340Z,12.40
2019-02-25T13:46:55.150Z,12.40
2019-02-25T13:49:42.913Z,12.40
2019-02-25T13:52:30.588Z,12.30
2019-02-25T13:55:18.401Z,12.40
2019-02-25T13:58:06.456Z,12.50
2019-02-25T14:00:54.500Z,12.60
2019-02-25T14:03:42.324Z,12.60
2019-02-25T14:06:30.297Z,12.60
2019-02-25T14:09:18.006Z,12.60
2019-02-25T14:12:05.514Z,12.70
2019-02-25T14:14:53.300Z,12.70
2019-02-25T14:17:41.131Z,12.70
2019-02-25T14:20:28.890Z,12.70
2019-02-25T14:23:18.425Z,12.70
2019-02-25T14:26:05.876Z,12.80
2019-02-25T14:28:53.407Z,12.70
2019-02-25T14:31:41.340Z,12.80
2019-02-25T14:34:29.212Z,12.70
2019-02-25T14:37:20.457Z,12.70
2019-02-25T14:40:14.530Z,12.80
2019-02-25T14:43:00.612Z,12.90
2019-02-25T14:45:53.126Z,12.90
2019-02-25T14:48:38.309Z,12.80
2019-02-25T14:51:26.013Z,12.80
2019-02-25T14:54:13.721Z,12.70
2019-02-25T14:57:01.489Z,12.70
2019-02-25T14:59:49.359Z,12.70
2019-02-25T15:02:38.680Z,12.70
2019-02-25T15:05:27.167Z,12.70
2019-02-25T15:08:14.651Z,12.70
2019-02-25T15:11:02.893Z,12.70
2019-02-25T15:13:51.510Z,12.70
2019-02-25T15:16:39.201Z,12.70
2019-02-25T15:19:27.875Z,12.70
2019-02-25T15:22:16.141Z,12.60
2019-02-25T15:25:04.778Z,12.50
2019-02-25T15:27:52.487Z,12.40
2019-02-25T15:30:40.169Z,12.30
2019-02-25T15:33:27.924Z,12.30
2019-02-25T15:36:17.767Z,12.30
2019-02-25T15:39:07.269Z,12.20
2019-02-25T15:41:55.073Z,12.10
2019-02-25T15:44:44.514Z,12.10
2019-02-25T15:47:32.115Z,12.10
2019-02-25T15:50:19.876Z,12.10
2019-02-25T15:53:09.917Z,12.10
2019-02-25T15:55:59.388Z,12.00
2019-02-25T15:58:48.410Z,12.00
2019-02-25T16:01:35.849Z,12.00
2019-02-25T16:04:25.506Z,12.00
2019-02-25T16:07:13.580Z,11.90
2019-02-25T16:10:04.946Z,11.90
2019-02-25T16:12:55.772Z,11.80
2019-02-25T16:15:41.431Z,11.70
2019-02-25T16:18:29.056Z,11.60
2019-02-25T16:21:17.069Z,11.60
2019-02-25T16:24:08.160Z,11.50
2019-02-25T16:26:56.270Z,11.50
2019-02-25T16:29:44.350Z,11.40
2019-02-25T16:32:32.214Z,11.40
2019-02-25T16:35:21.024Z,11.40
2019-02-25T16:38:09.019Z,11.40
2019-02-25T16:40:57.047Z,11.30
2019-02-25T16:43:45.983Z,11.30
2019-02-25T16:46:36.550Z,11.20
2019-02-25T16:49:23.434Z,11.10
2019-02-25T16:52:11.319Z,11.00
2019-02-25T16:54:59.094Z,11.00
2019-02-25T16:57:47.815Z,10.90
2019-02-25T17:00:37.255Z,10.80
2019-02-25T17:03:24.881Z,10.70
2019-02-25T17:06:14.034Z,10.50
2019-02-25T17:09:01.753Z,10.40
2019-02-25T17:11:49.377Z,10.30
2019-02-25T17:14:40.077Z,10.20
2019-02-25T17:17:26.861Z,10.00
2019-02-25T17:20:15.553Z,9.90
2019-02-25T17:23:03.874Z,9.80
2019-02-25T17:25:52.164Z,9.70
2019-02-25T17:28:40.021Z,9.60
2019-02-25T17:31:30.039Z,9.50
2019-02-25T17:34:19.217Z,9.40
2019-02-25T17:37:08.123Z,9.20
2019-02-25T17:39:58.443Z,9.10
2019-02-25T17:42:47.351Z,9.00
2019-02-25T17:45:36.879Z,8.80
2019-02-25T17:48:23.895Z,8.60
2019-02-25T17:51:11.572Z,8.50
2019-02-25T17:53:58.846Z,8.30
2019-02-25T17:56:47.472Z,8.20
2019-02-25T17:59:36.298Z,8.10
2019-02-25T18:02:24.495Z,8.00
2019-02-25T18:05:14.112Z,7.90
2019-02-25T18:08:02.905Z,7.80
2019-02-25T18:10:51.861Z,7.70
2019-02-25T18:13:39.917Z,7.60
2019-02-25T18:16:27.767Z,7.40
2019-02-25T18:19:15.910Z,7.20
2019-02-25T18:22:04.454Z,7.00
2019-02-25T18:24:52.173Z,7.00
2019-02-25T18:27:41.442Z,6.80
2019-02-25T18:30:29.988Z,6.60
2019-02-25T18:33:20.395Z,6.40
2019-02-25T18:36:08.854Z,6.20
2019-02-25T18:38:56.767Z,6.10
2019-02-25T18:41:46.093Z,5.90
2019-02-25T18:44:34.073Z,5.70
2019-02-25T18:47:23.433Z,5.70
2019-02-25T18:50:15.194Z,5.60
2019-02-25T18:53:02.743Z,5.50
2019-02-25T18:55:51.806Z,5.50
2019-02-25T18:58:41.247Z,5.50
2019-02-25T19:01:29.498Z,5.40
2019-02-25T19:04:19.276Z,5.40
2019-02-25T19:07:08.311Z,5.30
2019-02-25T19:09:58.091Z,5.20
2019-02-25T19:12:45.957Z,5.00
2019-02-25T19:15:35.010Z,4.90
2019-02-25T19:18:22.956Z,4.90
2019-02-25T19:21:10.957Z,4.80
2019-02-25T19:23:59.260Z,4.60
2019-02-25T19:26:48.593Z,4.60
2019-02-25T19:29:36.192Z,4.50
2019-02-25T19:32:23.714Z,4.40
2019-02-25T19:35:12.103Z,4.30
2019-02-25T19:38:03.186Z,4.30
2019-02-25T19:40:51.311Z,4.20
2019-02-25T19:43:38.052Z,4.10
2019-02-25T19:46:26.140Z,4.10
2019-02-25T19:49:15.987Z,4.00
2019-02-25T19:52:04.858Z,3.90
2019-02-25T19:54:53.468Z,3.80
2019-02-25T19:57:42.451Z,3.80
2019-02-25T20:00:33.110Z,3.70
2019-02-25T20:03:19.980Z,3.60
2019-02-25T20:06:11.208Z,3.50
2019-02-25T20:08:58.286Z,3.50
2019-02-25T20:11:46.701Z,3.40
2019-02-25T20:14:34.092Z,3.40
2019-02-25T20:17:25.949Z,3.30
2019-02-25T20:20:12.842Z,3.30
2019-02-25T20:23:02.131Z,3.20
2019-02-25T20:25:51.229Z,3.10
2019-02-25T20:28:41.319Z,3.10
2019-02-25T20:31:29.809Z,3.10
2019-02-25T20:34:20.542Z,3.20
2019-02-25T20:37:07.110Z,3.20
2019-02-25T20:39:54.739Z,3.20
2019-02-25T20:42:44.451Z,3.20
2019-02-25T20:45:33.252Z,3.10
2019-02-25T20:48:21.213Z,3.10
2019-02-25T20:51:10.212Z,3.00
2019-02-25T20:53:58.097Z,2.90
2019-02-25T20:56:46.815Z,2.90
2019-02-25T20:59:35.795Z,2.70
2019-02-25T21:02:24.048Z,2.60
2019-02-25T21:05:14.732Z,2.50
2019-02-25T21:08:01.921Z,2.40
2019-02-25T21:10:50.380Z,2.40
2019-02-25T21:13:38.489Z,2.30
2019-02-25T21:16:28.443Z,2.30
2019-02-25T21:19:18.389Z,2.30
2019-02-25T21:22:07.232Z,2.30
2019-02-25T21:24:55.892Z,2.20
2019-02-25T21:27:44.562Z,2.20
2019-02-25T21:30:32.468Z,2.20
2019-02-25T21:33:25.900Z,2.10
2019-02-25T21:36:13.752Z,2.00
2019-02-25T21:39:01.028Z,1.90
2019-02-25T21:41:48.649Z,1.90
2019-02-25T21:44:36.777Z,1.80
2019-02-25T21:47:26.345Z,1.80
2019-02-25T21:50:14.818Z,1.80
2019-02-25T21:53:04.196Z,1.80
2019-02-25T21:55:53.498Z,1.80
2019-02-25T21:58:42.898Z,1.80
2019-02-25T22:01:32.163Z,1.70
2019-02-25T22:04:20.359Z,1.70
2019-02-25T22:07:09.225Z,1.70
2019-02-25T22:09:56.835Z,1.70
2019-02-25T22:12:44.637Z,1.70
2019-02-25T22:15:34.057Z,1.60
2019-02-25T22:18:21.629Z,1.60
2019-02-25T22:21:11.635Z,1.60
2019-02-25T22:24:02.656Z,1.50
2019-02-25T22:26:49.971Z,1.50
2019-02-25T22:29:38.636Z,1.50
2019-02-25T22:32:26.845Z,1.40
2019-02-25T22:35:15.905Z,1.40
2019-02-25T22:38:03.868Z,1.40
2019-02-25T22:40:53.628Z,1.40
2019-02-25T22:43:43.167Z,1.40
2019-02-25T22:46:32.541Z,1.30
2019-02-25T22:49:19.572Z,1.30
2019-02-25T22:52:07.500Z,1.40
2019-02-25T22:54:55.431Z,1.30
2019-02-25T22:57:45.697Z,1.30
2019-02-25T23:00:42.166Z,1.30
2019-02-25T23:03:29.505Z,1.30
2019-02-25T23:06:18.311Z,1.30
2019-02-25T23:09:12.249Z,1.20
2019-02-25T23:11:58.842Z,1.20
2019-02-25T23:14:46.677Z,1.10
2019-02-25T23:17:37.136Z,1.10
2019-02-25T23:20:25.248Z,1.00
2019-02-25T23:23:13.585Z,1.00
2019-02-25T23:26:02.197Z,1.00
2019-02-25T23:28:51.064Z,0.90
2019-02-25T23:31:39.591Z,0.90
2019-02-25T23:34:27.497Z,0.80
2019-02-25T23:37:16.996Z,0.80
2019-02-25T23:40:07.318Z,0.80
2019-02-25T23:42:54.255Z,0.80
2019-02-25T23:45:44.211Z,0.70
2019-02-25T23:48:33.737Z,0.80
2019-02-25T23:51:21.687Z,0.80
2019-02-25T23:54:12.124Z,0.80
2019-02-25T23:57:00.184Z,0.80
2019-02-25T23:59:48.883Z,0.80
